Time;durP1;ratioP1;P1;durP2;ratioP2;P2;SDS_P1;SDS_P2;PMS_P1;PMS_P2;Temp;Humidity;BMP_temperature;BMP_pressure;BME280_temperature;BME280_humidity;BME280_pressure;Samples;Min_cycle;Max_cycle;Signal;HPM_P1;HPM_P2
2023/10/21 00:01:01;;;;;;;;;;;;;;;;;;6311825;28;19924;-89
2023/10/21 00:04:01;;;;;;;;;;;;;;;;;;6326947;28;20003;-89
2023/10/21 00:07:01;;;;;;;;;;;;;;;;;;6314477;28;19995;-89
2023/10/21 00:10:02;;;;;;;;;;;;;;;;;;6307623;28;20019;-89
2023/10/21 00:13:02;;;;;;;;;;;;;;;;;;6315007;28;19914;-89
2023/10/21 00:16:02;;;;;;;;;;;;;;;;;;6326313;28;20262;-89
2023/10/21 00:19:03;;;;;;;;;;;;;;;;;;6316165;28;19911;-89
2023/10/21 00:22:03;;;;;;;;;;;;;;;;;;6323427;28;20072;-89
2023/10/21 00:25:04;;;;;;;;;;;;;;;;;;6341763;28;19963;-89
2023/10/21 00:28:04;;;;;;;;;;;;;;;;;;6306298;28;20384;-89
2023/10/21 00:31:04;;;;;;;;;;;;;;;;;;6330363;28;20246;-89
2023/10/21 00:34:04;;;;;;;;;;;;;;;;;;6314820;28;19919;-89
2023/10/21 00:37:04;;;;;;;;;;;;;;;;;;6310651;28;20171;-89
2023/10/21 00:40:11;;;;;;;;;;;;;;;;;;6302210;28;19919;-89
2023/10/21 00:43:11;;;;;;;;;;;;;;;;;;6325073;28;19916;-89
2023/10/21 00:46:11;;;;;;;;;;;;;;;;;;6308702;28;19911;-89
2023/10/21 00:49:11;;;;;;;;;;;;;;;;;;6317485;28;19912;-87
2023/10/21 00:52:13;;;;;;;;;;;;;;;;;;6307089;28;20293;-87
2023/10/21 00:55:13;;;;;;;;;;;;;;;;;;6322301;28;20026;-87
2023/10/21 00:58:15;;;;;;;;;;;;;;;;;;6313105;28;20262;-87
2023/10/21 01:01:15;;;;;;;;;;;;;;;;;;6326708;28;19924;-87
2023/10/21 01:04:16;;;;;;;;;;;;;;;;;;6311152;28;19935;-87
2023/10/21 01:07:16;;;;;;;;;;;;;;;;;;6323229;28;19919;-89
2023/10/21 01:10:16;;;;;;;;;;;;;;;;;;6321980;28;19911;-89
2023/10/21 01:13:17;;;;;;;;;;;;;;;;;;6308065;28;19918;-89
2023/10/21 01:16:17;;;;;;;;;;;;;;;;;;6342637;28;19912;-88
2023/10/21 01:19:17;;;;;;;;;;;;;;;;;;6322222;28;19912;-89
2023/10/21 01:22:17;;;;;;;;;;;;;;;;;;6316698;28;19961;-89
2023/10/21 01:25:17;;;;;;;;;;;;;;;;;;6300182;28;19912;-89
2023/10/21 01:28:17;;;;;;;;;;;;;;;;;;6315171;28;19907;-89
2023/10/21 01:31:17;;;;;;;;;;;;;;;;;;6316565;28;19908;-89
2023/10/21 01:34:17;;;;;;;;;;;;;;;;;;6304179;28;19958;-89
2023/10/21 01:37:18;;;;;;;;;;;;;;;;;;6321969;28;19998;-88
2023/10/21 01:40:18;;;;;;;;;;;;;;;;;;6309882;28;20250;-89
2023/10/21 01:43:18;;;;;;;;;;;;;;;;;;6300517;28;19994;-89
2023/10/21 01:46:18;;;;;;;;;;;;;;;;;;6313697;28;19974;-89
2023/10/21 01:49:18;;;;;;;;;;;;;;;;;;6303127;28;20016;-89
2023/10/21 01:52:18;;;;;;;;;;;;;;;;;;6314541;28;19988;-89
2023/10/21 01:55:18;;;;;;;;;;;;;;;;;;6315656;28;19912;-89
2023/10/21 01:58:19;;;;;;;;;;;;;;;;;;6314626;28;19912;-87
2023/10/21 02:01:19;;;;;;;;;;;;;;;;;;6304130;28;20222;-88
2023/10/21 02:04:19;;;;;;;;;;;;;;;;;;6314349;28;19923;-87
2023/10/21 02:07:19;;;;;;;;;;;;;;;;;;6318473;28;19919;-87
2023/10/21 02:10:19;;;;;;;;;;;;;;;;;;6318070;28;19912;-87
2023/10/21 02:13:19;;;;;;;;;;;;;;;;;;6327558;28;19995;-87
2023/10/21 02:16:19;;;;;;;;;;;;;;;;;;6322354;28;20002;-87
2023/10/21 02:19:20;;;;;;;;;;;;;;;;;;6335066;28;20030;-88
2023/10/21 02:22:20;;;;;;;;;;;;;;;;;;6309139;28;20010;-88
2023/10/21 02:25:20;;;;;;;;;;;;;;;;;;6308422;28;19916;-88
2023/10/21 02:28:20;;;;;;;;;;;;;;;;;;6312142;28;19957;-88
2023/10/21 02:31:20;;;;;;;;;;;;;;;;;;6323076;28;20303;-88
2023/10/21 02:34:20;;;;;;;;;;;;;;;;;;6332778;28;19916;-88
2023/10/21 02:37:20;;;;;;;;;;;;;;;;;;6310643;28;19916;-88
2023/10/21 02:40:21;;;;;;;;;;;;;;;;;;6337333;28;19912;-88
2023/10/21 02:43:21;;;;;;;;;;;;;;;;;;6320203;28;19915;-88
2023/10/21 02:46:21;;;;;;;;;;;;;;;;;;6311223;28;20275;-88
2023/10/21 02:49:21;;;;;;;;;;;;;;;;;;6321943;28;19912;-88
2023/10/21 02:52:21;;;;;;;;;;;;;;;;;;6308743;28;20442;-88
2023/10/21 02:55:22;;;;;;;;;;;;;;;;;;6312324;28;19938;-88
2023/10/21 02:58:22;;;;;;;;;;;;;;;;;;6317255;28;19969;-88
2023/10/21 03:01:25;;;;;;;;;;;;;;;;;;6316954;28;19924;-88
2023/10/21 03:04:25;;;;;;;;;;;;;;;;;;6345215;28;19993;-88
2023/10/21 03:07:25;;;;;;;;;;;;;;;;;;6334190;28;19916;-90
2023/10/21 03:10:25;;;;;;;;;;;;;;;;;;6315020;28;19915;-90
2023/10/21 03:13:25;;;;;;;;;;;;;;;;;;6318800;28;19914;-90
2023/10/21 03:16:25;;;;;;;;;;;;;;;;;;6311311;28;19931;-90
2023/10/21 03:19:25;;;;;;;;;;;;;;;;;;6338533;28;19956;-90
2023/10/21 03:22:25;;;;;;;;;;;;;;;;;;6314597;28;19962;-90
2023/10/21 03:25:26;;;;;;;;;;;;;;;;;;6313679;28;20046;-90
2023/10/21 03:28:26;;;;;;;;;;;;;;;;;;6332431;28;20059;-90
2023/10/21 03:31:27;;;;;;;;;;;;;;;;;;6308950;28;20575;-90
2023/10/21 03:34:27;;;;;;;;;;;;;;;;;;6310740;28;20293;-90
2023/10/21 03:37:27;;;;;;;;;;;;;;;;;;6309036;28;19920;-90
2023/10/21 03:40:27;;;;;;;;;;;;;;;;;;6330010;28;20621;-90
2023/10/21 03:43:27;;;;;;;;;;;;;;;;;;6338412;27;20035;-90
2023/10/21 03:46:28;;;;;;;;;;;;;;;;;;6319282;28;19919;-90
2023/10/21 03:49:28;;;;;;;;;;;;;;;;;;6330813;27;20031;-90
2023/10/21 03:52:28;;;;;;;;;;;;;;;;;;6334396;27;19920;-90
2023/10/21 03:55:28;;;;;;;;;;;;;;;;;;6315889;28;19915;-90
2023/10/21 03:58:28;;;;;;;;;;;;;;;;;;6318442;28;20009;-90
2023/10/21 04:01:28;;;;;;;;;;;;;;;;;;6314252;28;19924;-90
2023/10/21 04:04:28;;;;;;;;;;;;;;;;;;6309798;28;20500;-90
2023/10/21 04:07:29;;;;;;;;;;;;;;;;;;6328270;28;20351;-90
2023/10/21 04:10:29;;;;;;;;;;;;;;;;;;6335868;28;19965;-91
2023/10/21 04:13:29;;;;;;;;;;;;;;;;;;6310998;28;20015;-90
2023/10/21 04:16:29;;;;;;;;;;;;;;;;;;6307554;28;19951;-90
2023/10/21 04:19:29;;;;;;;;;;;;;;;;;;6309736;28;19946;-90
2023/10/21 04:22:30;;;;;;;;;;;;;;;;;;6303763;28;20006;-90
2023/10/21 04:25:30;;;;;;;;;;;;;;;;;;6306617;28;20386;-89
2023/10/21 04:28:30;;;;;;;;;;;;;;;;;;6308202;28;19942;-89
2023/10/21 04:31:30;;;;;;;;;;;;;;;;;;6326571;28;19908;-90
2023/10/21 04:34:30;;;;;;;;;;;;;;;;;;6307088;28;20385;-90
2023/10/21 04:37:31;;;;;;;;;;;;;;;;;;6323149;28;19908;-90
2023/10/21 04:40:31;;;;;;;;;;;;;;;;;;6314194;28;19951;-90
2023/10/21 04:43:31;;;;;;;;;;;;;;;;;;6307571;28;19916;-90
2023/10/21 04:46:31;;;;;;;;;;;;;;;;;;6303457;28;19915;-90
2023/10/21 04:49:32;;;;;;;;;;;;;;;;;;6301295;28;19928;-90
2023/10/21 04:52:32;;;;;;;;;;;;;;;;;;6323720;28;20282;-89
2023/10/21 04:55:33;;;;;;;;;;;;;;;;;;6318786;28;19943;-90
2023/10/21 04:58:33;;;;;;;;;;;;;;;;;;6319288;28;19919;-89
2023/10/21 05:01:33;;;;;;;;;;;;;;;;;;6321004;28;20002;-90
2023/10/21 05:04:33;;;;;;;;;;;;;;;;;;6297130;28;20337;-90
2023/10/21 05:07:33;;;;;;;;;;;;;;;;;;6334530;28;20006;-89
2023/10/21 05:10:33;;;;;;;;;;;;;;;;;;6310631;28;19998;-90
2023/10/21 05:13:33;;;;;;;;;;;;;;;;;;6314239;28;19998;-89
2023/10/21 05:16:33;;;;;;;;;;;;;;;;;;6330157;28;19956;-90
2023/10/21 05:19:34;;;;;;;;;;;;;;;;;;6320459;28;19941;-90
2023/10/21 05:22:34;;;;;;;;;;;;;;;;;;6316071;28;19915;-90
2023/10/21 05:25:34;;;;;;;;;;;;;;;;;;6307900;28;19932;-90
2023/10/21 05:28:34;;;;;;;;;;;;;;;;;;6310887;28;19920;-90
2023/10/21 05:31:34;;;;;;;;;;;;;;;;;;6306713;28;19920;-90
2023/10/21 05:34:34;;;;;;;;;;;;;;;;;;6299252;28;19912;-90
2023/10/21 05:37:35;;;;;;;;;;;;;;;;;;6309600;28;19984;-90
2023/10/21 05:40:35;;;;;;;;;;;;;;;;;;6313198;28;20335;-90
2023/10/21 05:43:35;;;;;;;;;;;;;;;;;;6315111;28;19923;-90
2023/10/21 05:46:35;;;;;;;;;;;;;;;;;;6316517;28;19942;-90
2023/10/21 05:49:35;;;;;;;;;;;;;;;;;;6320515;28;19915;-90
2023/10/21 05:52:36;;;;;;;;;;;;;;;;;;6327962;28;19912;-90
2023/10/21 05:55:36;;;;;;;;;;;;;;;;;;6305133;28;19923;-89
2023/10/21 05:58:37;;;;;;;;;;;;;;;;;;6309933;28;20029;-90
2023/10/21 06:01:37;;;;;;;;;;;;;;;;;;6308660;28;20302;-90
2023/10/21 06:04:37;;;;;;;;;;;;;;;;;;6323684;28;19920;-90
2023/10/21 06:07:37;;;;;;;;;;;;;;;;;;6310040;28;20008;-90
2023/10/21 06:10:38;;;;;;;;;;;;;;;;;;6305055;28;19912;-89
2023/10/21 06:13:39;;;;;;;;;;;;;;;;;;6309044;28;19965;-90
2023/10/21 06:16:39;;;;;;;;;;;;;;;;;;6315043;28;19907;-89
2023/10/21 06:19:39;;;;;;;;;;;;;;;;;;6310203;28;19911;-90
2023/10/21 06:22:48;;;;;;;;;;;;;;;;;;6329784;28;19916;-90
2023/10/21 06:25:49;;;;;;;;;;;;;;;;;;6311043;28;19920;-90
2023/10/21 06:28:49;;;;;;;;;;;;;;;;;;6306293;28;19920;-90
2023/10/21 06:31:49;;;;;;;;;;;;;;;;;;6294287;28;19969;-90
2023/10/21 06:34:50;;;;;;;;;;;;;;;;;;6304628;28;20510;-90
2023/10/21 06:37:51;;;;;;;;;;;;;;;;;;6310834;28;19912;-90
2023/10/21 06:40:51;;;;;;;;;;;;;;;;;;6312810;28;19947;-90
2023/10/21 06:43:54;;;;;;;;;;;;;;;;;;6315447;28;19975;-90
2023/10/21 06:46:55;;;;;;;;;;;;;;;;;;6306586;28;20466;-90
2023/10/21 06:49:55;;;;;;;;;;;;;;;;;;6314234;28;20445;-90
2023/10/21 06:52:55;;;;;;;;;;;;;;;;;;6310620;28;19916;-90
2023/10/21 06:55:56;;;;;;;;;;;;;;;;;;6312021;28;19916;-89
2023/10/21 06:58:57;;;;;;;;;;;;;;;;;;6312473;28;20001;-90
2023/10/21 07:01:57;;;;;;;;;;;;;;;;;;6311132;27;19930;-89
2023/10/21 07:04:57;;;;;;;;;;;;;;;;;;6311696;28;20695;-90
2023/10/21 07:07:57;;;;;;;;;;;;;;;;;;6332022;28;19985;-90
2023/10/21 07:10:57;;;;;;;;;;;;;;;;;;6309864;28;19923;-91
2023/10/21 07:13:58;;;;;;;;;;;;;;;;;;6313630;28;19916;-90
2023/10/21 07:17:00;;;;;;;;;;;;;;;;;;6309131;28;19916;-90
2023/10/21 07:20:00;;;;;;;;;;;;;;;;;;6312330;27;19969;-90
2023/10/21 07:23:00;;;;;;;;;;;;;;;;;;6320762;27;19908;-90
2023/10/21 07:26:00;;;;;;;;;;;;;;;;;;6321099;28;20721;-90
2023/10/21 07:29:01;;;;;;;;;;;;;;;;;;6317729;28;19958;-90
2023/10/21 07:32:01;;;;;;;;;;;;;;;;;;6313037;27;19994;-92
2023/10/21 07:35:03;;;;;;;;;;;;;;;;;;6329710;27;20381;-92
2023/10/21 07:38:09;;;;;;;;;;;;;;;;;;6330928;28;19916;-92
2023/10/21 07:41:10;;;;;;;;;;;;;;;;;;6336790;28;19916;-92
2023/10/21 07:44:11;;;;;;;;;;;;;;;;;;6333865;28;19927;-92
2023/10/21 07:47:12;;;;;;;;;;;;;;;;;;6315353;28;20109;-92
2023/10/21 07:50:13;;;;;;;;;;;;;;;;;;6319101;28;19916;-92
2023/10/21 07:53:13;;;;;;;;;;;;;;;;;;6321432;28;19916;-91
2023/10/21 07:56:13;;;;;;;;;;;;;;;;;;6317053;28;20781;-92
2023/10/21 07:59:16;;;;;;;;;;;;;;;;;;6306942;28;19912;-92
2023/10/21 08:02:17;;;;;;;;;;;;;;;;;;6319242;28;19991;-92
2023/10/21 08:05:17;;;;;;;;;;;;;;;;;;6318829;28;19919;-92
2023/10/21 08:08:17;;;;;;;;;;;;;;;;;;6305114;28;19916;-85
2023/10/21 08:11:17;;;;;;;;;;;;;;;;;;6328502;27;19966;-86
2023/10/21 08:14:18;;;;;;;;;;;;;;;;;;6311847;28;19989;-88
2023/10/21 08:17:18;;;;;;;;;;;;;;;;;;6332699;28;19947;-85
2023/10/21 08:20:18;;;;;;;;;;;;;;;;;;6326658;27;20270;-85
2023/10/21 08:23:18;;;;;;;;;;;;;;;;;;6315177;28;19920;-86
2023/10/21 08:26:19;;;;;;;;;;;;;;;;;;6327179;28;19912;-86
2023/10/21 08:29:20;;;;;;;;;;;;;;;;;;6334229;27;19919;-86
2023/10/21 08:32:20;;;;;;;;;;;;;;;;;;6327976;28;19916;-86
2023/10/21 08:35:20;;;;;;;;;;;;;;;;;;6304951;28;19960;-86
2023/10/21 08:38:20;;;;;;;;;;;;;;;;;;6325722;28;19916;-86
2023/10/21 08:41:23;;;;;;;;;;;;;;;;;;6322566;28;19961;-86
2023/10/21 08:44:23;;;;;;;;;;;;;;;;;;6327136;27;19916;-86
2023/10/21 08:47:23;;;;;;;;;;;;;;;;;;6310662;28;19992;-86
2023/10/21 08:50:24;;;;;;;;;;;;;;;;;;6330949;28;19908;-86
2023/10/21 08:53:24;;;;;;;;;;;;;;;;;;6332499;28;19922;-86
2023/10/21 08:56:24;;;;;;;;;;;;;;;;;;6319686;28;19912;-86
2023/10/21 08:59:24;;;;;;;;;;;;;;;;;;6309882;28;20031;-92
2023/10/21 09:02:25;;;;;;;;;;;;;;;;;;6312392;28;19959;-91
2023/10/21 09:05:34;;;;;;;;;;;;;;;;;;6326492;28;19924;-91
2023/10/21 09:08:34;;;;;;;;;;;;;;;;;;6327114;28;20426;-92
2023/10/21 09:11:34;;;;;;;;;;;;;;;;;;6306927;28;19920;-92
2023/10/21 09:14:34;;;;;;;;;;;;;;;;;;6324105;28;20318;-92
2023/10/21 09:17:35;;;;;;;;;;;;;;;;;;6330514;28;19919;-87
2023/10/21 09:20:35;;;;;;;;;;;;;;;;;;6332236;28;19967;-86
2023/10/21 09:23:35;;;;;;;;;;;;;;;;;;6315532;28;19970;-87
2023/10/21 09:26:35;;;;;;;;;;;;;;;;;;6333727;28;20007;-86
2023/10/21 09:29:35;;;;;;;;;;;;;;;;;;6307066;28;19923;-87
2023/10/21 09:32:35;;;;;;;;;;;;;;;;;;6311285;28;20028;-86
2023/10/21 09:35:36;;;;;;;;;;;;;;;;;;6327708;28;20464;-87
2023/10/21 09:38:36;;;;;;;;;;;;;;;;;;6335123;28;19913;-86
2023/10/21 09:41:37;;;;;;;;;;;;;;;;;;6315362;28;19919;-87
2023/10/21 09:44:38;;;;;;;;;;;;;;;;;;6304529;28;19920;-86
2023/10/21 09:47:38;;;;;;;;;;;;;;;;;;6331083;28;19912;-86
2023/10/21 09:50:38;;;;;;;;;;;;;;;;;;6325455;28;19912;-86
2023/10/21 09:53:39;;;;;;;;;;;;;;;;;;6306414;28;19916;-86
2023/10/21 09:56:39;;;;;;;;;;;;;;;;;;6331597;28;19920;-87
2023/10/21 09:59:39;;;;;;;;;;;;;;;;;;6312000;28;19931;-87
2023/10/21 10:02:40;;;;;;;;;;;;;;;;;;6309806;28;19916;-87
2023/10/21 10:05:40;;;;;;;;;;;;;;;;;;6326119;28;20271;-87
2023/10/21 10:08:40;;;;;;;;;;;;;;;;;;6315387;28;19912;-87
2023/10/21 10:11:42;;;;;;;;;;;;;;;;;;6326611;28;19944;-87
2023/10/21 10:14:43;;;;;;;;;;;;;;;;;;6321264;28;19908;-87
2023/10/21 10:17:43;;;;;;;;;;;;;;;;;;6306575;28;19966;-88
2023/10/21 10:20:43;;;;;;;;;;;;;;;;;;6321586;28;19915;-87
2023/10/21 10:23:43;;;;;;;;;;;;;;;;;;6313374;28;19999;-87
2023/10/21 10:26:44;;;;;;;;;;;;;;;;;;6328311;27;20425;-88
2023/10/21 10:29:46;;;;;;;;;;;;;;;;;;6315566;28;20381;-87
2023/10/21 10:32:47;;;;;;;;;;;;;;;;;;6330326;28;20010;-87
2023/10/21 10:35:47;;;;;;;;;;;;;;;;;;6309296;28;19952;-87
2023/10/21 10:38:47;;;;;;;;;;;;;;;;;;6321680;28;19912;-87
2023/10/21 10:41:48;;;;;;;;;;;;;;;;;;6336266;27;19966;-87
2023/10/21 10:44:48;;;;;;;;;;;;;;;;;;6335875;28;20342;-87
2023/10/21 10:47:48;;;;;;;;;;;;;;;;;;6310791;28;20431;-87
2023/10/21 10:50:48;;;;;;;;;;;;;;;;;;6327474;28;19972;-87
2023/10/21 10:53:52;;;;;;;;;;;;;;;;;;6314807;28;20007;-87
2023/10/21 10:56:54;;;;;;;;;;;;;;;;;;6339099;28;19968;-88
2023/10/21 10:59:54;;;;;;;;;;;;;;;;;;6332868;28;19930;-87
2023/10/21 11:02:54;;;;;;;;;;;;;;;;;;6314826;28;19916;-89
2023/10/21 11:05:57;;;;;;;;;;;;;;;;;;6333168;28;20022;-87
2023/10/21 11:08:57;;;;;;;;;;;;;;;;;;6316486;28;19959;-87
2023/10/21 11:11:57;;;;;;;;;;;;;;;;;;6326792;27;20381;-87
2023/10/21 11:15:00;;;;;;;;;;;;;;;;;;6326549;28;19912;-87
2023/10/21 11:18:00;;;;;;;;;;;;;;;;;;6321322;28;19924;-87
2023/10/21 11:21:01;;;;;;;;;;;;;;;;;;6313331;28;19935;-87
2023/10/21 11:24:02;;;;;;;;;;;;;;;;;;6314728;27;19915;-87
2023/10/21 11:27:02;;;;;;;;;;;;;;;;;;6318369;27;20228;-87
2023/10/21 11:30:07;;;;;;;;;;;;;;;;;;6329961;28;20645;-88
2023/10/21 11:33:10;;;;;;;;;;;;;;;;;;6326478;28;19919;-87
2023/10/21 11:36:10;;;;;;;;;;;;;;;;;;6334482;27;19916;-87
2023/10/21 11:39:14;;;;;;;;;;;;;;;;;;6312552;28;19927;-87
2023/10/21 11:42:14;;;;;;;;;;;;;;;;;;6305627;28;20408;-87
2023/10/21 11:45:14;;;;;;;;;;;;;;;;;;6304261;28;19924;-87
2023/10/21 11:48:15;;;;;;;;;;;;;;;;;;6313049;28;19916;-87
2023/10/21 11:51:15;;;;;;;;;;;;;;;;;;6316960;28;19922;-94
2023/10/21 11:54:39;;;;;;;;;;;;;;;;;;6323124;28;19916;-93
2023/10/21 12:14:03;;;;;;;;;;;;;;;;;;6348635;27;19915;-93
2023/10/21 12:43:34;;;;;;;;;;;;;;;;;;6347083;28;20464;-93
2023/10/21 12:46:38;;;;;;;;;;;;;;;;;;6319420;28;19913;-93
2023/10/21 12:49:43;;;;;;;;;;;;;;;;;;6308766;28;19950;-93
2023/10/21 12:52:47;;;;;;;;;;;;;;;;;;6320364;28;20435;-93
2023/10/21 12:55:48;;;;;;;;;;;;;;;;;;6337744;27;19912;-93
2023/10/21 12:58:48;;;;;;;;;;;;;;;;;;6346188;28;19922;-93
2023/10/21 13:01:48;;;;;;;;;;;;;;;;;;6315381;28;19936;-93
2023/10/21 13:04:48;;;;;;;;;;;;;;;;;;6316484;28;20036;-93
2023/10/21 13:07:48;;;;;;;;;;;;;;;;;;6314939;28;19919;-94
2023/10/21 13:10:48;;;;;;;;;;;;;;;;;;6327685;28;19908;-93
2023/10/21 13:13:50;;;;;;;;;;;;;;;;;;6323841;28;19919;-93
2023/10/21 13:16:52;;;;;;;;;;;;;;;;;;6354407;27;20017;-93
2023/10/21 13:19:52;;;;;;;;;;;;;;;;;;6363634;27;20025;-93
2023/10/21 13:22:54;;;;;;;;;;;;;;;;;;6356302;28;19896;-93
2023/10/21 13:25:54;;;;;;;;;;;;;;;;;;6344285;28;19915;-93
2023/10/21 13:28:54;;;;;;;;;;;;;;;;;;6346538;27;19900;-93
2023/10/21 13:31:55;;;;;;;;;;;;;;;;;;6363446;27;19912;-93
2023/10/21 13:34:55;;;;;;;;;;;;;;;;;;6363530;27;19937;-93
2023/10/21 13:37:55;;;;;;;;;;;;;;;;;;6351490;28;19908;-93
2023/10/21 13:40:56;;;;;;;;;;;;;;;;;;6354256;28;19912;-94
2023/10/21 13:43:58;;;;;;;;;;;;;;;;;;6371031;27;19951;-93
2023/10/21 13:46:58;;;;;;;;;;;;;;;;;;6356040;27;19931;-94
2023/10/21 13:50:01;;;;;;;;;;;;;;;;;;6337742;28;19896;-94
2023/10/21 13:56:21;;;;;;;;;;;;;;;;;;6380222;27;19919;-92
2023/10/21 13:59:23;;;;;;;;;;;;;;;;;;6358536;27;19907;-92
2023/10/21 14:02:23;;;;;;;;;;;;;;;;;;6359680;27;19975;-93
2023/10/21 14:05:23;;;;;;;;;;;;;;;;;;6356120;27;19927;-93
2023/10/21 14:08:26;;;;;;;;;;;;;;;;;;6329916;28;19911;-92
2023/10/21 14:11:27;;;;;;;;;;;;;;;;;;6331895;28;20385;-93
2023/10/21 14:14:27;;;;;;;;;;;;;;;;;;6317071;28;19959;-93
2023/10/21 14:17:27;;;;;;;;;;;;;;;;;;6320765;28;20350;-93
2023/10/21 14:20:27;;;;;;;;;;;;;;;;;;6322652;28;19908;-93
2023/10/21 14:23:27;;;;;;;;;;;;;;;;;;6334370;28;19961;-93
2023/10/21 14:26:27;;;;;;;;;;;;;;;;;;6317063;28;19978;-94
2023/10/21 14:29:28;;;;;;;;;;;;;;;;;;6323106;28;19912;-93
2023/10/21 14:32:28;;;;;;;;;;;;;;;;;;6319354;28;19912;-93
2023/10/21 14:35:28;;;;;;;;;;;;;;;;;;6320761;28;20397;-93
2023/10/21 14:38:31;;;;;;;;;;;;;;;;;;6305660;28;19916;-93
2023/10/21 14:41:33;;;;;;;;;;;;;;;;;;6320364;28;19947;-93
2023/10/21 14:44:33;;;;;;;;;;;;;;;;;;6314705;28;19912;-93
2023/10/21 14:47:35;;;;;;;;;;;;;;;;;;6328640;28;19908;-94
2023/10/21 14:50:35;;;;;;;;;;;;;;;;;;6339105;28;19998;-93
2023/10/21 14:53:35;;;;;;;;;;;;;;;;;;6329498;28;20281;-93
2023/10/21 14:56:36;;;;;;;;;;;;;;;;;;6327557;28;20293;-93
2023/10/21 14:59:36;;;;;;;;;;;;;;;;;;6322772;28;19975;-93
2023/10/21 15:02:37;;;;;;;;;;;;;;;;;;6320464;28;19915;-95
2023/10/21 15:05:37;;;;;;;;;;;;;;;;;;6328661;28;19908;-93
2023/10/21 15:08:41;;;;;;;;;;;;;;;;;;6340802;28;20006;-94
2023/10/21 15:11:41;;;;;;;;;;;;;;;;;;6334699;28;19969;-94
2023/10/21 15:14:42;;;;;;;;;;;;;;;;;;6326901;28;19916;-93
2023/10/21 15:17:44;;;;;;;;;;;;;;;;;;6307470;28;20274;-93
2023/10/21 15:20:44;;;;;;;;;;;;;;;;;;6309844;28;19916;-93
2023/10/21 15:23:44;;;;;;;;;;;;;;;;;;6306287;28;20349;-94
2023/10/21 15:26:44;;;;;;;;;;;;;;;;;;6316799;27;19912;-93
2023/10/21 15:29:44;;;;;;;;;;;;;;;;;;6320149;28;19912;-94
2023/10/21 15:32:44;;;;;;;;;;;;;;;;;;6320812;28;19913;-94
2023/10/21 15:35:45;;;;;;;;;;;;;;;;;;6318269;28;19945;-93
2023/10/21 15:38:47;;;;;;;;;;;;;;;;;;6318016;28;19922;-93
2023/10/21 15:41:50;;;;;;;;;;;;;;;;;;6339361;27;20382;-93
2023/10/21 15:44:50;;;;;;;;;;;;;;;;;;6322445;28;20425;-93
2023/10/21 15:47:50;;;;;;;;;;;;;;;;;;6321750;28;19926;-93
2023/10/21 15:50:50;;;;;;;;;;;;;;;;;;6314845;27;20025;-93
2023/10/21 15:53:50;;;;;;;;;;;;;;;;;;6322676;27;19920;-93
2023/10/21 15:56:50;;;;;;;;;;;;;;;;;;6315635;28;19912;-94
2023/10/21 15:59:53;;;;;;;;;;;;;;;;;;6305676;28;19928;-93
2023/10/21 16:02:53;;;;;;;;;;;;;;;;;;6307599;28;20034;-93
2023/10/21 16:05:53;;;;;;;;;;;;;;;;;;6304644;28;19941;-94
2023/10/21 16:08:57;;;;;;;;;;;;;;;;;;6304766;28;19911;-93
2023/10/21 16:11:58;;;;;;;;;;;;;;;;;;6309371;28;19923;-93
2023/10/21 16:14:58;;;;;;;;;;;;;;;;;;6318053;28;19955;-93
2023/10/21 16:17:58;;;;;;;;;;;;;;;;;;6306498;28;19963;-94
2023/10/21 16:20:58;;;;;;;;;;;;;;;;;;6303623;28;20395;-93
2023/10/21 16:23:58;;;;;;;;;;;;;;;;;;6306473;28;20615;-93
2023/10/21 16:26:58;;;;;;;;;;;;;;;;;;6320536;27;19915;-93
2023/10/21 16:29:59;;;;;;;;;;;;;;;;;;6315527;28;19995;-93
2023/10/21 16:32:59;;;;;;;;;;;;;;;;;;6304746;28;20006;-93
2023/10/21 16:35:59;;;;;;;;;;;;;;;;;;6323625;28;20132;-93
2023/10/21 16:39:00;;;;;;;;;;;;;;;;;;6305032;28;19912;-93
2023/10/21 16:42:00;;;;;;;;;;;;;;;;;;6309832;28;20365;-93
2023/10/21 16:45:00;;;;;;;;;;;;;;;;;;6319241;28;19915;-93
2023/10/21 16:48:01;;;;;;;;;;;;;;;;;;6316221;28;20358;-93
2023/10/21 16:51:01;;;;;;;;;;;;;;;;;;6311221;28;19919;-93
2023/10/21 16:54:01;;;;;;;;;;;;;;;;;;6317580;28;20405;-95
2023/10/21 16:57:03;;;;;;;;;;;;;;;;;;6302334;28;19908;-93
2023/10/21 17:00:03;;;;;;;;;;;;;;;;;;6325126;28;19935;-96
2023/10/21 17:03:04;;;;;;;;;;;;;;;;;;6313750;28;20441;-93
2023/10/21 17:06:04;;;;;;;;;;;;;;;;;;6307110;28;19918;-94
2023/10/21 17:09:05;;;;;;;;;;;;;;;;;;6309572;28;19990;-93
2023/10/21 17:12:05;;;;;;;;;;;;;;;;;;6311840;27;19920;-92
2023/10/21 17:15:06;;;;;;;;;;;;;;;;;;6318141;28;20056;-93
2023/10/21 17:18:08;;;;;;;;;;;;;;;;;;6303873;28;19912;-93
2023/10/21 17:21:11;;;;;;;;;;;;;;;;;;6308432;28;19961;-94
2023/10/21 17:24:12;;;;;;;;;;;;;;;;;;6320017;28;19916;-93
2023/10/21 17:27:12;;;;;;;;;;;;;;;;;;6323873;28;19912;-93
2023/10/21 17:30:13;;;;;;;;;;;;;;;;;;6307800;28;20005;-93
2023/10/21 17:33:13;;;;;;;;;;;;;;;;;;6324190;28;19968;-93
2023/10/21 17:36:15;;;;;;;;;;;;;;;;;;6308653;28;19920;-94
2023/10/21 17:39:15;;;;;;;;;;;;;;;;;;6326356;27;19916;-93
2023/10/21 17:42:15;;;;;;;;;;;;;;;;;;6304664;28;19916;-94
2023/10/21 17:45:15;;;;;;;;;;;;;;;;;;6310658;28;20506;-93
2023/10/21 17:48:16;;;;;;;;;;;;;;;;;;6302999;28;20367;-93
2023/10/21 17:51:16;;;;;;;;;;;;;;;;;;6312000;28;20355;-92
2023/10/21 17:54:16;;;;;;;;;;;;;;;;;;6355800;22;19928;-86
2023/10/21 17:57:16;;;;;;;;;;;;;;;;;;6336466;28;20008;-88
2023/10/21 18:00:20;;;;;;;;;;;;;;;;;;6331677;28;19926;-87
2023/10/21 18:03:22;;;;;;;;;;;;;;;;;;6311766;28;20078;-87
2023/10/21 18:06:22;;;;;;;;;;;;;;;;;;6323733;28;19923;-88
2023/10/21 18:09:23;;;;;;;;;;;;;;;;;;6322703;28;20293;-88
2023/10/21 18:12:23;;;;;;;;;;;;;;;;;;6331518;28;19972;-89
2023/10/21 18:15:24;;;;;;;;;;;;;;;;;;6310742;28;19915;-89
2023/10/21 18:18:24;;;;;;;;;;;;;;;;;;6312785;28;19912;-89
2023/10/21 18:21:24;;;;;;;;;;;;;;;;;;6334204;28;19912;-89
2023/10/21 18:24:25;;;;;;;;;;;;;;;;;;6330175;28;20342;-88
2023/10/21 18:27:25;;;;;;;;;;;;;;;;;;6338632;28;19984;-88
2023/10/21 18:30:25;;;;;;;;;;;;;;;;;;6337029;28;19916;-91
2023/10/21 18:33:26;;;;;;;;;;;;;;;;;;6318244;28;19961;-88
2023/10/21 18:36:26;;;;;;;;;;;;;;;;;;6331995;28;20370;-87
2023/10/21 18:39:26;;;;;;;;;;;;;;;;;;6331025;28;19918;-89
2023/10/21 18:42:26;;;;;;;;;;;;;;;;;;6319432;28;19915;-89
2023/10/21 18:45:26;;;;;;;;;;;;;;;;;;6313423;28;19916;-89
2023/10/21 18:48:26;;;;;;;;;;;;;;;;;;6324157;28;20388;-89
2023/10/21 18:51:31;;;;;;;;;;;;;;;;;;6336955;28;19994;-89
2023/10/21 18:54:31;;;;;;;;;;;;;;;;;;6343883;28;19964;-89
2023/10/21 18:57:32;;;;;;;;;;;;;;;;;;6330777;27;19955;-89
2023/10/21 19:00:32;;;;;;;;;;;;;;;;;;6349097;27;19968;-89
2023/10/21 19:03:32;;;;;;;;;;;;;;;;;;6325319;28;19995;-90
2023/10/21 19:06:36;;;;;;;;;;;;;;;;;;6323830;28;20632;-89
2023/10/21 19:09:36;;;;;;;;;;;;;;;;;;6346548;28;19911;-88
2023/10/21 19:12:36;;;;;;;;;;;;;;;;;;6321727;28;19919;-89
2023/10/21 19:15:36;;;;;;;;;;;;;;;;;;6322563;28;20404;-89
2023/10/21 19:18:36;;;;;;;;;;;;;;;;;;6340548;28;20373;-88
2023/10/21 19:21:37;;;;;;;;;;;;;;;;;;6322845;28;19912;-88
2023/10/21 19:24:37;;;;;;;;;;;;;;;;;;6326183;28;20402;-88
2023/10/21 19:27:37;;;;;;;;;;;;;;;;;;6336049;28;20537;-89
2023/10/21 19:30:37;;;;;;;;;;;;;;;;;;6339192;28;19911;-88
2023/10/21 19:33:37;;;;;;;;;;;;;;;;;;6324127;28;19990;-89
2023/10/21 19:36:39;;;;;;;;;;;;;;;;;;6342229;28;19916;-89
2023/10/21 19:39:39;;;;;;;;;;;;;;;;;;6337541;28;19964;-89
2023/10/21 19:42:39;;;;;;;;;;;;;;;;;;6327168;28;19915;-89
2023/10/21 19:45:40;;;;;;;;;;;;;;;;;;6321746;28;20430;-88
2023/10/21 19:48:40;;;;;;;;;;;;;;;;;;6340981;28;19947;-88
2023/10/21 19:51:40;;;;;;;;;;;;;;;;;;6345079;28;19973;-88
2023/10/21 19:54:40;;;;;;;;;;;;;;;;;;6319646;28;19948;-88
2023/10/21 19:57:40;;;;;;;;;;;;;;;;;;6337115;28;19915;-89
2023/10/21 20:00:41;;;;;;;;;;;;;;;;;;6344451;28;19954;-89
2023/10/21 20:03:41;;;;;;;;;;;;;;;;;;6344088;28;19938;-89
2023/10/21 20:06:41;;;;;;;;;;;;;;;;;;6323922;28;19916;-89
2023/10/21 20:09:41;;;;;;;;;;;;;;;;;;6325295;28;19912;-88
2023/10/21 20:12:42;;;;;;;;;;;;;;;;;;6342479;28;19912;-89
2023/10/21 20:15:42;;;;;;;;;;;;;;;;;;6340192;28;20460;-87
2023/10/21 20:18:45;;;;;;;;;;;;;;;;;;6322875;28;19919;-89
2023/10/21 20:21:45;;;;;;;;;;;;;;;;;;6339480;28;19912;-89
2023/10/21 20:24:45;;;;;;;;;;;;;;;;;;6323395;28;20545;-89
2023/10/21 20:27:46;;;;;;;;;;;;;;;;;;6337967;28;19919;-89
2023/10/21 20:30:46;;;;;;;;;;;;;;;;;;6324073;28;20385;-89
2023/10/21 20:33:46;;;;;;;;;;;;;;;;;;6321654;28;20349;-88
2023/10/21 20:36:47;;;;;;;;;;;;;;;;;;6319587;28;19920;-89
2023/10/21 20:39:47;;;;;;;;;;;;;;;;;;6339778;28;20381;-89
2023/10/21 20:42:47;;;;;;;;;;;;;;;;;;6325785;28;19919;-89
2023/10/21 20:45:47;;;;;;;;;;;;;;;;;;6324114;28;19927;-90
2023/10/21 20:48:47;;;;;;;;;;;;;;;;;;6320115;28;19907;-89
2023/10/21 20:51:48;;;;;;;;;;;;;;;;;;6320384;28;20729;-90
2023/10/21 20:54:48;;;;;;;;;;;;;;;;;;6323389;28;20187;-89
2023/10/21 20:57:48;;;;;;;;;;;;;;;;;;6344534;28;19912;-88
2023/10/21 21:00:50;;;;;;;;;;;;;;;;;;6340645;28;19912;-89
2023/10/21 21:03:50;;;;;;;;;;;;;;;;;;6324520;28;20253;-88
2023/10/21 21:06:50;;;;;;;;;;;;;;;;;;6324549;28;19908;-88
2023/10/21 21:09:52;;;;;;;;;;;;;;;;;;6324381;28;20286;-89
2023/10/21 21:12:52;;;;;;;;;;;;;;;;;;6341242;28;20014;-89
2023/10/21 21:15:52;;;;;;;;;;;;;;;;;;6319694;28;20476;-88
2023/10/21 21:18:53;;;;;;;;;;;;;;;;;;6342812;28;19919;-89